sensor_id;sensor_type;location;lat;lon;timestamp;pressure;altitude;pressure_sealevel;temperature;humidity
30744;BME280;17486;46.738;7.622;2023-06-10T00:00:15;94871.63;;;19.93;62.42
30744;BME280;17486;46.738;7.622;2023-06-10T00:02:41;94879.13;;;19.88;62.61
30744;BME280;17486;46.738;7.622;2023-06-10T00:05:08;94869.13;;;19.82;63.00
30744;BME280;17486;46.738;7.622;2023-06-10T00:07:34;94852.34;;;19.73;62.71
30744;BME280;17486;46.738;7.622;2023-06-10T00:10:04;94877.47;;;19.87;63.00
30744;BME280;17486;46.738;7.622;2023-06-10T00:12:30;94870.38;;;19.78;62.83
30744;BME280;17486;46.738;7.622;2023-06-10T00:14:56;94884.41;;;19.78;63.01
30744;BME280;17486;46.738;7.622;2023-06-10T00:17:21;94880.91;;;19.78;63.28
30744;BME280;17486;46.738;7.622;2023-06-10T00:19:48;94878.28;;;19.78;63.27
30744;BME280;17486;46.738;7.622;2023-06-10T00:22:15;94879.94;;;19.79;63.71
30744;BME280;17486;46.738;7.622;2023-06-10T00:24:41;94868.56;;;19.68;63.47
30744;BME280;17486;46.738;7.622;2023-06-10T00:27:07;94864.16;;;19.59;63.88
30744;BME280;17486;46.738;7.622;2023-06-10T00:29:32;94889.38;;;19.71;63.86
30744;BME280;17486;46.738;7.622;2023-06-10T00:31:58;94876.94;;;19.64;63.82
30744;BME280;17486;46.738;7.622;2023-06-10T00:34:24;94888.72;;;19.69;63.86
30744;BME280;17486;46.738;7.622;2023-06-10T00:36:50;94788.69;;;18.99;63.97
30744;BME280;17486;46.738;7.622;2023-06-10T00:39:15;94884.53;;;19.57;64.32
30744;BME280;17486;46.738;7.622;2023-06-10T00:41:41;94861.97;;;19.35;64.19
30744;BME280;17486;46.738;7.622;2023-06-10T00:44:07;94878.47;;;19.47;64.76
30744;BME280;17486;46.738;7.622;2023-06-10T00:46:32;94883.75;;;19.47;65.11
30744;BME280;17486;46.738;7.622;2023-06-10T00:48:59;94880.28;;;19.36;65.82
30744;BME280;17486;46.738;7.622;2023-06-10T00:51:25;94874.59;;;19.31;65.65
30744;BME280;17486;46.738;7.622;2023-06-10T00:53:52;94889.03;;;19.47;65.84
30744;BME280;17486;46.738;7.622;2023-06-10T00:56:18;94883.34;;;19.42;66.10
30744;BME280;17486;46.738;7.622;2023-06-10T00:58:44;94874.44;;;19.33;66.13
30744;BME280;17486;46.738;7.622;2023-06-10T01:01:09;94887.22;;;19.47;66.11
30744;BME280;17486;46.738;7.622;2023-06-10T01:03:36;94880.81;;;19.50;66.50
30744;BME280;17486;46.738;7.622;2023-06-10T01:08:52;94878.19;;;19.50;66.44
30744;BME280;17486;46.738;7.622;2023-06-10T01:11:25;94880.13;;;19.48;66.59
30744;BME280;17486;46.738;7.622;2023-06-10T01:13:55;94875.94;;;19.45;66.43
30744;BME280;17486;46.738;7.622;2023-06-10T01:16:21;94859.72;;;19.30;66.51
30744;BME280;17486;46.738;7.622;2023-06-10T01:18:47;94881.38;;;19.44;66.44
30744;BME280;17486;46.738;7.622;2023-06-10T01:21:19;94877.06;;;19.43;66.47
30744;BME280;17486;46.738;7.622;2023-06-10T01:23:44;94879.03;;;19.41;66.76
30744;BME280;17486;46.738;7.622;2023-06-10T01:26:11;94860.28;;;19.24;66.42
30744;BME280;17486;46.738;7.622;2023-06-10T01:28:50;94877.63;;;19.36;66.23
30744;BME280;17486;46.738;7.622;2023-06-10T01:33:52;94860.03;;;19.27;66.39
30744;BME280;17486;46.738;7.622;2023-06-10T01:36:19;94873.03;;;19.38;66.28
30744;BME280;17486;46.738;7.622;2023-06-10T01:38:47;94868.06;;;19.35;65.99
30744;BME280;17486;46.738;7.622;2023-06-10T01:41:17;94867.78;;;19.38;66.00
30744;BME280;17486;46.738;7.622;2023-06-10T01:43:43;94878.59;;;19.35;66.43
30744;BME280;17486;46.738;7.622;2023-06-10T01:46:09;94871.53;;;19.26;66.49
30744;BME280;17486;46.738;7.622;2023-06-10T01:48:36;94869.16;;;19.13;67.23
30744;BME280;17486;46.738;7.622;2023-06-10T01:51:02;94874.59;;;19.12;67.53
30744;BME280;17486;46.738;7.622;2023-06-10T01:53:28;94868.59;;;19.10;67.72
30744;BME280;17486;46.738;7.622;2023-06-10T01:55:53;94869.72;;;19.07;68.11
30744;BME280;17486;46.738;7.622;2023-06-10T01:58:19;94871.66;;;19.05;67.73
30744;BME280;17486;46.738;7.622;2023-06-10T02:00:44;94873.19;;;19.08;67.89
30744;BME280;17486;46.738;7.622;2023-06-10T02:03:09;94866.94;;;19.09;67.52
30744;BME280;17486;46.738;7.622;2023-06-10T02:05:35;94863.75;;;19.15;67.65
30744;BME280;17486;46.738;7.622;2023-06-10T02:08:00;94863.06;;;19.22;67.44
30744;BME280;17486;46.738;7.622;2023-06-10T02:10:26;94822.25;;;19.07;67.07
30744;BME280;17486;46.738;7.622;2023-06-10T02:12:52;94858.34;;;19.36;67.14
30744;BME280;17486;46.738;7.622;2023-06-10T02:15:17;94857.22;;;19.38;66.40
30744;BME280;17486;46.738;7.622;2023-06-10T02:17:42;94846.41;;;19.32;66.44
30744;BME280;17486;46.738;7.622;2023-06-10T02:20:10;94867.25;;;19.35;66.54
30744;BME280;17486;46.738;7.622;2023-06-10T02:22:36;94865.56;;;19.34;66.48
30744;BME280;17486;46.738;7.622;2023-06-10T02:25:01;94862.66;;;19.27;66.88
30744;BME280;17486;46.738;7.622;2023-06-10T02:27:27;94844.03;;;19.19;67.03
30744;BME280;17486;46.738;7.622;2023-06-10T02:29:52;94861.00;;;19.26;67.42
30744;BME280;17486;46.738;7.622;2023-06-10T02:32:18;94859.88;;;19.19;67.82
30744;BME280;17486;46.738;7.622;2023-06-10T02:34:43;94860.84;;;19.18;68.54
30744;BME280;17486;46.738;7.622;2023-06-10T02:37:09;94863.91;;;19.13;69.21
30744;BME280;17486;46.738;7.622;2023-06-10T02:39:34;94844.88;;;19.00;69.86
30744;BME280;17486;46.738;7.622;2023-06-10T02:42:00;94863.47;;;19.08;69.84
30744;BME280;17486;46.738;7.622;2023-06-10T02:44:25;94864.28;;;19.09;69.93
30744;BME280;17486;46.738;7.622;2023-06-10T02:46:51;94838.47;;;18.93;69.79
30744;BME280;17486;46.738;7.622;2023-06-10T02:49:16;94867.63;;;19.11;70.10
30744;BME280;17486;46.738;7.622;2023-06-10T02:51:42;94867.06;;;19.07;70.10
30744;BME280;17486;46.738;7.622;2023-06-10T02:54:07;94873.63;;;19.13;70.06
30744;BME280;17486;46.738;7.622;2023-06-10T02:56:32;94860.84;;;18.98;70.17
30744;BME280;17486;46.738;7.622;2023-06-10T02:58:58;94882.19;;;19.15;70.40
30744;BME280;17486;46.738;7.622;2023-06-10T03:01:24;94891.22;;;19.12;70.39
30744;BME280;17486;46.738;7.622;2023-06-10T03:03:50;94879.72;;;19.03;70.43
30744;BME280;17486;46.738;7.622;2023-06-10T03:06:15;94888.00;;;19.09;70.66
30744;BME280;17486;46.738;7.622;2023-06-10T03:08:41;94879.72;;;19.03;70.68
30744;BME280;17486;46.738;7.622;2023-06-10T03:11:06;94888.41;;;18.94;70.65
30744;BME280;17486;46.738;7.622;2023-06-10T03:13:32;94892.16;;;18.92;71.03
30744;BME280;17486;46.738;7.622;2023-06-10T03:15:58;94893.50;;;18.86;71.55
30744;BME280;17486;46.738;7.622;2023-06-10T03:18:27;94904.06;;;18.86;71.75
30744;BME280;17486;46.738;7.622;2023-06-10T03:20:53;94901.88;;;18.91;71.74
30744;BME280;17486;46.738;7.622;2023-06-10T03:23:20;94900.78;;;18.94;71.43
30744;BME280;17486;46.738;7.622;2023-06-10T03:25:45;94889.66;;;18.90;71.27
30744;BME280;17486;46.738;7.622;2023-06-10T03:28:11;94893.81;;;18.93;70.88
30744;BME280;17486;46.738;7.622;2023-06-10T03:30:36;94894.38;;;18.86;70.74
30744;BME280;17486;46.738;7.622;2023-06-10T03:33:02;94901.69;;;18.83;70.40
30744;BME280;17486;46.738;7.622;2023-06-10T03:35:27;94895.16;;;18.77;69.66
30744;BME280;17486;46.738;7.622;2023-06-10T03:37:53;94881.25;;;18.55;69.78
30744;BME280;17486;46.738;7.622;2023-06-10T03:40:18;94900.78;;;18.53;70.08
30744;BME280;17486;46.738;7.622;2023-06-10T03:42:43;94895.59;;;18.42;70.58
30744;BME280;17486;46.738;7.622;2023-06-10T03:45:09;94904.22;;;18.44;70.88
30744;BME280;17486;46.738;7.622;2023-06-10T03:47:36;94912.78;;;18.46;71.12
30744;BME280;17486;46.738;7.622;2023-06-10T03:50:05;94908.94;;;18.50;71.37
30744;BME280;17486;46.738;7.622;2023-06-10T03:52:31;94915.34;;;18.57;71.02
30744;BME280;17486;46.738;7.622;2023-06-10T03:54:56;94908.84;;;18.61;70.88
30744;BME280;17486;46.738;7.622;2023-06-10T03:57:22;94896.94;;;18.67;70.79
30744;BME280;17486;46.738;7.622;2023-06-10T03:59:47;94905.13;;;18.73;70.54
30744;BME280;17486;46.738;7.622;2023-06-10T04:02:13;94906.78;;;18.75;70.14
30744;BME280;17486;46.738;7.622;2023-06-10T04:04:38;94912.34;;;18.71;69.89
30744;BME280;17486;46.738;7.622;2023-06-10T04:07:06;94911.75;;;18.68;70.14
30744;BME280;17486;46.738;7.622;2023-06-10T04:09:34;94915.69;;;18.73;69.92
30744;BME280;17486;46.738;7.622;2023-06-10T04:11:59;94902.31;;;18.65;69.69
30744;BME280;17486;46.738;7.622;2023-06-10T04:14:25;94904.00;;;18.66;69.64
30744;BME280;17486;46.738;7.622;2023-06-10T04:16:50;94923.84;;;18.70;69.92
30744;BME280;17486;46.738;7.622;2023-06-10T04:19:16;94923.16;;;18.68;70.11
30744;BME280;17486;46.738;7.622;2023-06-10T04:21:42;94915.94;;;18.70;69.97
30744;BME280;17486;46.738;7.622;2023-06-10T04:24:07;94916.06;;;18.69;69.96
30744;BME280;17486;46.738;7.622;2023-06-10T04:26:36;94879.00;;;18.51;69.78
30744;BME280;17486;46.738;7.622;2023-06-10T04:29:02;94909.97;;;18.68;69.62
30744;BME280;17486;46.738;7.622;2023-06-10T04:31:27;94907.47;;;18.67;69.33
30744;BME280;17486;46.738;7.622;2023-06-10T04:33:53;94917.75;;;18.80;69.39
30744;BME280;17486;46.738;7.622;2023-06-10T04:36:18;94907.34;;;18.78;69.17
30744;BME280;17486;46.738;7.622;2023-06-10T04:38:44;94925.72;;;18.89;68.88
30744;BME280;17486;46.738;7.622;2023-06-10T04:41:09;94930.72;;;18.93;68.60
30744;BME280;17486;46.738;7.622;2023-06-10T04:43:35;94929.38;;;18.98;68.58
30744;BME280;17486;46.738;7.622;2023-06-10T04:46:00;94927.41;;;19.00;68.43
30744;BME280;17486;46.738;7.622;2023-06-10T04:48:25;94928.81;;;19.04;68.34
30744;BME280;17486;46.738;7.622;2023-06-10T04:50:51;94930.47;;;19.05;68.39
30744;BME280;17486;46.738;7.622;2023-06-10T04:53:16;94937.41;;;19.07;68.34
30744;BME280;17486;46.738;7.622;2023-06-10T04:55:42;94930.34;;;19.07;68.41
30744;BME280;17486;46.738;7.622;2023-06-10T04:58:09;94943.25;;;19.10;67.99
30744;BME280;17486;46.738;7.622;2023-06-10T05:00:34;94941.03;;;19.05;68.07
30744;BME280;17486;46.738;7.622;2023-06-10T05:03:00;94942.13;;;19.03;68.17
30744;BME280;17486;46.738;7.622;2023-06-10T05:05:25;94922.13;;;18.91;68.27
30744;BME280;17486;46.738;7.622;2023-06-10T05:07:50;94949.06;;;19.04;67.76
30744;BME280;17486;46.738;7.622;2023-06-10T05:10:16;94944.63;;;19.04;67.53
30744;BME280;17486;46.738;7.622;2023-06-10T05:12:41;94945.31;;;19.07;67.43
30744;BME280;17486;46.738;7.622;2023-06-10T05:15:07;94949.34;;;19.11;67.56
30744;BME280;17486;46.738;7.622;2023-06-10T05:17:33;94944.91;;;19.11;67.28
30744;BME280;17486;46.738;7.622;2023-06-10T05:20:00;94945.47;;;19.15;67.03
30744;BME280;17486;46.738;7.622;2023-06-10T05:22:25;94947.00;;;19.17;67.02
30744;BME280;17486;46.738;7.622;2023-06-10T05:24:52;94916.03;;;19.00;67.43
30744;BME280;17486;46.738;7.622;2023-06-10T05:27:18;94952.56;;;19.24;67.09
30744;BME280;17486;46.738;7.622;2023-06-10T05:29:44;94955.06;;;19.26;67.01
30744;BME280;17486;46.738;7.622;2023-06-10T05:32:10;94928.97;;;19.13;67.00
30744;BME280;17486;46.738;7.622;2023-06-10T05:34:36;94951.59;;;19.25;66.79
30744;BME280;17486;46.738;7.622;2023-06-10T05:37:01;94950.34;;;19.19;66.54
30744;BME280;17486;46.738;7.622;2023-06-10T05:39:26;94950.88;;;19.13;66.44
30744;BME280;17486;46.738;7.622;2023-06-10T05:41:52;94952.41;;;19.16;66.84
30744;BME280;17486;46.738;7.622;2023-06-10T05:44:17;94928.94;;;19.03;66.65
30744;BME280;17486;46.738;7.622;2023-06-10T05:46:43;94957.41;;;19.19;66.69
30744;BME280;17486;46.738;7.622;2023-06-10T05:49:08;94940.47;;;19.12;66.76
30744;BME280;17486;46.738;7.622;2023-06-10T05:51:33;94960.22;;;19.27;66.88
30744;BME280;17486;46.738;7.622;2023-06-10T05:53:59;94961.84;;;19.28;66.60
30744;BME280;17486;46.738;7.622;2023-06-10T05:56:24;94965.22;;;19.30;66.45
30744;BME280;17486;46.738;7.622;2023-06-10T05:58:51;94960.75;;;19.31;66.51
30744;BME280;17486;46.738;7.622;2023-06-10T06:01:16;94956.75;;;19.36;66.34
30744;BME280;17486;46.738;7.622;2023-06-10T06:03:42;94959.25;;;19.38;66.31
30744;BME280;17486;46.738;7.622;2023-06-10T06:06:07;94957.19;;;19.42;66.12
30744;BME280;17486;46.738;7.622;2023-06-10T06:08:32;94958.56;;;19.46;66.21
30744;BME280;17486;46.738;7.622;2023-06-10T06:10:58;94955.66;;;19.49;66.36
30744;BME280;17486;46.738;7.622;2023-06-10T06:13:23;94961.34;;;19.54;66.23
30744;BME280;17486;46.738;7.622;2023-06-10T06:15:50;94964.69;;;19.56;65.88
30744;BME280;17486;46.738;7.622;2023-06-10T06:18:15;94956.47;;;19.59;65.91
30744;BME280;17486;46.738;7.622;2023-06-10T06:20:41;94944.41;;;19.57;65.77
30744;BME280;17486;46.738;7.622;2023-06-10T06:23:06;94934.41;;;19.50;65.84
30744;BME280;17486;46.738;7.622;2023-06-10T06:25:33;94949.69;;;19.66;65.99
30744;BME280;17486;46.738;7.622;2023-06-10T06:28:00;94946.06;;;19.67;65.95
30744;BME280;17486;46.738;7.622;2023-06-10T06:30:26;94958.41;;;19.77;65.86
30744;BME280;17486;46.738;7.622;2023-06-10T06:32:51;94959.13;;;19.79;65.63
30744;BME280;17486;46.738;7.622;2023-06-10T06:35:16;94948.84;;;19.76;65.65
30744;BME280;17486;46.738;7.622;2023-06-10T06:37:42;94950.78;;;19.74;65.59
30744;BME280;17486;46.738;7.622;2023-06-10T06:40:08;94958.84;;;19.82;65.34
30744;BME280;17486;46.738;7.622;2023-06-10T06:42:33;94958.16;;;19.80;65.62
30744;BME280;17486;46.738;7.622;2023-06-10T06:44:58;94958.28;;;19.78;65.56
30744;BME280;17486;46.738;7.622;2023-06-10T06:47:24;94963.56;;;19.78;65.12
30744;BME280;17486;46.738;7.622;2023-06-10T06:49:50;94946.34;;;19.74;65.02
30744;BME280;17486;46.738;7.622;2023-06-10T06:52:15;94959.72;;;19.82;64.88
30744;BME280;17486;46.738;7.622;2023-06-10T06:54:41;94947.44;;;19.71;64.85
30744;BME280;17486;46.738;7.622;2023-06-10T06:57:06;94958.31;;;19.88;64.82
30744;BME280;17486;46.738;7.622;2023-06-10T06:59:32;94964.56;;;19.97;64.81
30744;BME280;17486;46.738;7.622;2023-06-10T07:01:58;94970.94;;;20.04;64.72
30744;BME280;17486;46.738;7.622;2023-06-10T07:04:24;94956.91;;;19.94;64.40
30744;BME280;17486;46.738;7.622;2023-06-10T07:06:49;94957.59;;;19.96;64.48
30744;BME280;17486;46.738;7.622;2023-06-10T07:09:15;94967.47;;;20.03;64.70
30744;BME280;17486;46.738;7.622;2023-06-10T07:11:40;94955.78;;;19.96;65.05
30744;BME280;17486;46.738;7.622;2023-06-10T07:14:06;94960.50;;;20.02;64.86
30744;BME280;17486;46.738;7.622;2023-06-10T07:16:32;94934.56;;;19.88;65.07
30744;BME280;17486;46.738;7.622;2023-06-10T07:18:57;94949.25;;;20.00;65.17
30744;BME280;17486;46.738;7.622;2023-06-10T07:21:23;94973.28;;;20.17;64.95
30744;BME280;17486;46.738;7.622;2023-06-10T07:23:48;94955.53;;;19.99;64.10
30744;BME280;17486;46.738;7.622;2023-06-10T07:26:14;94966.06;;;20.09;64.35
30744;BME280;17486;46.738;7.622;2023-06-10T07:28:40;94979.09;;;20.11;64.34
30744;BME280;17486;46.738;7.622;2023-06-10T07:31:06;94980.09;;;20.10;64.34
30744;BME280;17486;46.738;7.622;2023-06-10T07:33:32;94979.97;;;20.11;64.15
30744;BME280;17486;46.738;7.622;2023-06-10T07:35:57;94985.25;;;20.11;64.04
30744;BME280;17486;46.738;7.622;2023-06-10T07:38:23;94984.38;;;20.11;64.02
30744;BME280;17486;46.738;7.622;2023-06-10T07:43:13;94954.00;;;19.97;64.11
30744;BME280;17486;46.738;7.622;2023-06-10T07:45:42;94982.75;;;20.10;63.95
30744;BME280;17486;46.738;7.622;2023-06-10T07:48:09;94982.03;;;20.08;63.93
30744;BME280;17486;46.738;7.622;2023-06-10T07:50:34;94982.19;;;20.06;64.01
30744;BME280;17486;46.738;7.622;2023-06-10T07:53:00;94984.69;;;20.08;64.08
30744;BME280;17486;46.738;7.622;2023-06-10T07:55:26;94986.34;;;20.09;64.09
30744;BME280;17486;46.738;7.622;2023-06-10T07:57:52;94988.03;;;20.10;64.07
30744;BME280;17486;46.738;7.622;2023-06-10T08:00:18;94977.16;;;20.13;63.90
30744;BME280;17486;46.738;7.622;2023-06-10T08:02:43;94982.72;;;20.19;64.35
30744;BME280;17486;46.738;7.622;2023-06-10T08:05:09;94984.94;;;20.24;64.56
30744;BME280;17486;46.738;7.622;2023-06-10T08:07:35;94981.88;;;20.29;64.78
30744;BME280;17486;46.738;7.622;2023-06-10T08:10:00;94984.91;;;20.34;63.62
30744;BME280;17486;46.738;7.622;2023-06-10T08:12:26;94985.72;;;20.34;63.46
30744;BME280;17486;46.738;7.622;2023-06-10T08:14:51;94988.50;;;20.43;63.71
30744;BME280;17486;46.738;7.622;2023-06-10T08:17:16;94990.72;;;20.47;63.88
30744;BME280;17486;46.738;7.622;2023-06-10T08:19:42;94987.34;;;20.55;63.95
30744;BME280;17486;46.738;7.622;2023-06-10T08:22:07;94981.34;;;20.63;63.73
30744;BME280;17486;46.738;7.622;2023-06-10T08:24:33;94978.28;;;20.67;63.32
30744;BME280;17486;46.738;7.622;2023-06-10T08:26:58;94981.22;;;20.74;63.16
30744;BME280;17486;46.738;7.622;2023-06-10T08:29:23;94977.97;;;20.80;62.93
30744;BME280;17486;46.738;7.622;2023-06-10T08:31:49;94967.28;;;20.72;62.67
30744;BME280;17486;46.738;7.622;2023-06-10T08:34:14;94972.25;;;20.85;62.50
30744;BME280;17486;46.738;7.622;2023-06-10T08:36:40;94979.22;;;20.86;62.43
30744;BME280;17486;46.738;7.622;2023-06-10T08:39:05;94978.91;;;20.89;62.13
30744;BME280;17486;46.738;7.622;2023-06-10T08:41:35;94979.59;;;20.91;62.02
30744;BME280;17486;46.738;7.622;2023-06-10T10:38:04;94938.81;;;23.99;52.32
30744;BME280;17486;46.738;7.622;2023-06-10T10:40:30;94943.16;;;23.92;52.37
30744;BME280;17486;46.738;7.622;2023-06-10T10:42:58;94932.47;;;23.84;52.88
30744;BME280;17486;46.738;7.622;2023-06-10T10:45:24;94934.97;;;23.77;52.98
30744;BME280;17486;46.738;7.622;2023-06-10T10:47:53;94931.31;;;23.70;52.95
30744;BME280;17486;46.738;7.622;2023-06-10T10:50:21;94936.28;;;23.65;53.01
30744;BME280;17486;46.738;7.622;2023-06-10T10:52:58;94917.84;;;23.47;52.82
30744;BME280;17486;46.738;7.622;2023-06-10T10:55:25;94938.75;;;23.50;53.56
30744;BME280;17486;46.738;7.622;2023-06-10T10:57:59;94935.97;;;23.51;53.80
30744;BME280;17486;46.738;7.622;2023-06-10T11:02:58;94925.34;;;23.68;52.76
30744;BME280;17486;46.738;7.622;2023-06-10T11:05:43;94912.88;;;23.60;52.77
30744;BME280;17486;46.738;7.622;2023-06-10T11:08:13;94927.16;;;23.76;52.63
30744;BME280;17486;46.738;7.622;2023-06-10T11:10:51;94926.81;;;23.79;52.36
30744;BME280;17486;46.738;7.622;2023-06-10T11:13:20;94928.00;;;23.84;52.29
30744;BME280;17486;46.738;7.622;2023-06-10T11:15:47;94913.72;;;23.77;52.47
30744;BME280;17486;46.738;7.622;2023-06-10T11:28:40;94937.81;;;24.09;49.79
30744;BME280;17486;46.738;7.622;2023-06-10T11:31:06;94927.50;;;24.14;50.25
30744;BME280;17486;46.738;7.622;2023-06-10T11:33:32;94922.03;;;24.24;49.87
30744;BME280;17486;46.738;7.622;2023-06-10T11:35:58;94930.31;;;24.37;49.93
30744;BME280;17486;46.738;7.622;2023-06-10T11:38:24;94922.81;;;24.49;49.57
30744;BME280;17486;46.738;7.622;2023-06-10T11:40:50;94919.63;;;24.54;49.42
30744;BME280;17486;46.738;7.622;2023-06-10T11:43:17;94927.28;;;24.57;48.88
30744;BME280;17486;46.738;7.622;2023-06-10T11:45:43;94913.44;;;24.61;48.71
30744;BME280;17486;46.738;7.622;2023-06-10T11:48:09;94913.97;;;24.65;48.94
30744;BME280;17486;46.738;7.622;2023-06-10T11:50:35;94908.81;;;24.63;49.30
30744;BME280;17486;46.738;7.622;2023-06-10T11:53:02;94903.66;;;24.70;49.68
30744;BME280;17486;46.738;7.622;2023-06-10T11:55:41;94909.09;;;24.77;50.11
30744;BME280;17486;46.738;7.622;2023-06-10T11:58:19;94898.47;;;24.77;48.41
30744;BME280;17486;46.738;7.622;2023-06-10T12:00:52;94907.75;;;24.89;47.98
30744;BME280;17486;46.738;7.622;2023-06-10T12:03:26;94905.53;;;25.01;47.21
30744;BME280;17486;46.738;7.622;2023-06-10T12:06:18;94905.28;;;25.11;46.77
30744;BME280;17486;46.738;7.622;2023-06-10T12:08:43;94906.50;;;25.31;46.36
30744;BME280;17486;46.738;7.622;2023-06-10T12:11:09;94903.19;;;25.38;45.62
30744;BME280;17486;46.738;7.622;2023-06-10T12:13:35;94901.16;;;25.40;45.64
30744;BME280;17486;46.738;7.622;2023-06-10T12:16:07;94861.06;;;25.33;45.98
30744;BME280;17486;46.738;7.622;2023-06-10T12:18:33;94891.53;;;25.62;45.30
30744;BME280;17486;46.738;7.622;2023-06-10T12:20:59;94887.31;;;25.68;45.67
30744;BME280;17486;46.738;7.622;2023-06-10T12:23:24;94891.44;;;25.70;45.22
30744;BME280;17486;46.738;7.622;2023-06-10T12:25:54;94887.78;;;25.71;45.11
30744;BME280;17486;46.738;7.622;2023-06-10T12:28:21;94895.84;;;25.86;44.98
30744;BME280;17486;46.738;7.622;2023-06-10T12:30:47;94885.00;;;26.03;43.50
30744;BME280;17486;46.738;7.622;2023-06-10T12:33:20;94880.03;;;26.23;43.51
30744;BME280;17486;46.738;7.622;2023-06-10T12:35:52;94870.94;;;26.47;43.31
30744;BME280;17486;46.738;7.622;2023-06-10T12:38:21;94862.91;;;26.62;42.99
30744;BME280;17486;46.738;7.622;2023-06-10T12:40:47;94844.88;;;26.79;41.57
30744;BME280;17486;46.738;7.622;2023-06-10T12:43:13;94839.28;;;26.89;41.45
30744;BME280;17486;46.738;7.622;2023-06-10T12:45:39;94869.13;;;27.14;41.25
30744;BME280;17486;46.738;7.622;2023-06-10T12:48:17;94862.03;;;27.21;40.48
30744;BME280;17486;46.738;7.622;2023-06-10T12:50:43;94860.69;;;27.32;39.80
30744;BME280;17486;46.738;7.622;2023-06-10T12:53:10;94845.88;;;27.29;40.24
30744;BME280;17486;46.738;7.622;2023-06-10T12:55:38;94851.38;;;27.43;40.38
30744;BME280;17486;46.738;7.622;2023-06-10T12:58:04;94849.09;;;27.40;39.91
30744;BME280;17486;46.738;7.622;2023-06-10T13:00:30;94841.06;;;27.40;39.64
30744;BME280;17486;46.738;7.622;2023-06-10T13:02:57;94845.00;;;27.44;40.04
30744;BME280;17486;46.738;7.622;2023-06-10T13:05:22;94839.69;;;27.44;39.24
30744;BME280;17486;46.738;7.622;2023-06-10T13:07:48;94838.84;;;27.43;39.58
30744;BME280;17486;46.738;7.622;2023-06-10T13:10:14;94837.41;;;27.41;39.51
30744;BME280;17486;46.738;7.622;2023-06-10T13:12:41;94833.06;;;27.40;39.61
30744;BME280;17486;46.738;7.622;2023-06-10T13:15:07;94830.66;;;27.45;40.00
30744;BME280;17486;46.738;7.622;2023-06-10T13:17:33;94818.81;;;27.54;39.91
30744;BME280;17486;46.738;7.622;2023-06-10T13:20:05;94822.41;;;27.68;39.96
30744;BME280;17486;46.738;7.622;2023-06-10T13:22:32;94825.41;;;27.80;39.25
30744;BME280;17486;46.738;7.622;2023-06-10T13:25:03;94811.41;;;27.78;38.97
30744;BME280;17486;46.738;7.622;2023-06-10T13:27:29;94807.59;;;27.94;38.93
30744;BME280;17486;46.738;7.622;2023-06-10T13:29:54;94806.75;;;28.15;38.57
30744;BME280;17486;46.738;7.622;2023-06-10T13:32:20;94816.50;;;28.29;38.17
30744;BME280;17486;46.738;7.622;2023-06-10T13:34:46;94821.72;;;28.44;38.40
30744;BME280;17486;46.738;7.622;2023-06-10T13:37:11;94813.09;;;28.49;38.57
30744;BME280;17486;46.738;7.622;2023-06-10T13:39:38;94814.41;;;28.60;40.39
30744;BME280;17486;46.738;7.622;2023-06-10T13:42:07;94808.00;;;28.61;39.79
30744;BME280;17486;46.738;7.622;2023-06-10T13:44:33;94789.88;;;28.56;39.06
30744;BME280;17486;46.738;7.622;2023-06-10T13:47:01;94805.00;;;28.71;37.83
30744;BME280;17486;46.738;7.622;2023-06-10T13:49:26;94806.25;;;28.75;37.69
30744;BME280;17486;46.738;7.622;2023-06-10T13:51:52;94801.13;;;28.80;37.38
30744;BME280;17486;46.738;7.622;2023-06-10T13:54:17;94774.94;;;28.75;38.15
30744;BME280;17486;46.738;7.622;2023-06-10T13:56:42;94784.91;;;29.02;36.71
30744;BME280;17486;46.738;7.622;2023-06-10T13:59:08;94795.44;;;29.10;37.65
30744;BME280;17486;46.738;7.622;2023-06-10T14:01:33;94782.66;;;29.05;37.54
30744;BME280;17486;46.738;7.622;2023-06-10T14:03:59;94786.78;;;29.08;36.46
30744;BME280;17486;46.738;7.622;2023-06-10T14:06:25;94787.41;;;29.10;36.87
30744;BME280;17486;46.738;7.622;2023-06-10T14:08:51;94791.34;;;29.14;37.01
30744;BME280;17486;46.738;7.622;2023-06-10T14:11:16;94782.66;;;29.19;36.78
30744;BME280;17486;46.738;7.622;2023-06-10T14:13:42;94789.50;;;29.28;36.83
30744;BME280;17486;46.738;7.622;2023-06-10T14:16:07;94749.09;;;29.16;36.74
30744;BME280;17486;46.738;7.622;2023-06-10T14:18:33;94774.72;;;29.39;36.27
30744;BME280;17486;46.738;7.622;2023-06-10T14:20:58;94777.81;;;29.63;36.49
30744;BME280;17486;46.738;7.622;2023-06-10T14:23:23;94760.91;;;29.69;36.38
30744;BME280;17486;46.738;7.622;2023-06-10T14:25:52;94770.81;;;29.88;35.82
30744;BME280;17486;46.738;7.622;2023-06-10T14:28:17;94772.63;;;29.94;36.05
30744;BME280;17486;46.738;7.622;2023-06-10T14:30:43;94776.34;;;29.93;35.49
30744;BME280;17486;46.738;7.622;2023-06-10T14:33:08;94766.47;;;29.87;35.42
30744;BME280;17486;46.738;7.622;2023-06-10T14:35:34;94761.91;;;29.81;35.08
30744;BME280;17486;46.738;7.622;2023-06-10T14:37:59;94767.28;;;29.74;35.35
30744;BME280;17486;46.738;7.622;2023-06-10T14:40:24;94769.31;;;29.72;35.71
30744;BME280;17486;46.738;7.622;2023-06-10T14:42:53;94771.41;;;29.77;36.51
30744;BME280;17486;46.738;7.622;2023-06-10T14:45:19;94771.41;;;29.77;36.56
30744;BME280;17486;46.738;7.622;2023-06-10T14:47:44;94781.91;;;29.72;37.01
30744;BME280;17486;46.738;7.622;2023-06-10T14:50:10;94781.94;;;29.58;40.15
30744;BME280;17486;46.738;7.622;2023-06-10T14:52:35;94760.44;;;29.25;39.29
30744;BME280;17486;46.738;7.622;2023-06-10T14:55:01;94774.63;;;29.05;37.98
30744;BME280;17486;46.738;7.622;2023-06-10T14:57:26;94783.22;;;28.87;38.04
30744;BME280;17486;46.738;7.622;2023-06-10T14:59:52;94781.50;;;28.66;38.62
30744;BME280;17486;46.738;7.622;2023-06-10T15:02:17;94784.06;;;28.46;38.68
30744;BME280;17486;46.738;7.622;2023-06-10T15:04:42;94772.41;;;28.19;39.72
30744;BME280;17486;46.738;7.622;2023-06-10T15:07:08;94780.16;;;28.07;40.00
30744;BME280;17486;46.738;7.622;2023-06-10T15:09:33;94761.03;;;27.75;40.76